Maine, Minnesota
Current Conditions -  °F | °C
As of 7:34 AM on Friday 28 Nov 2014 (Local Time) from KFFM Reporting Station
Scattered Clouds Scattered Clouds  
Wind Chill: -1°   Ceiling: Unl
Heat Index:   Visibility: 10mi
Dew Point:   Wind: 6mph
Humidity: 73%   Direction: 110°ESE
Pressure: 29.97"   Gusts: NA
Location:  46.3249°N, 95.8405°W
Report Text: KFFM 281334Z AUTO 11005KT 10SM SCT014 M13/M17 A2997 RMK AO2
Loading
Personal Weather Stations






























Interactive Weather Map New forecast layout! Learn more

10-Day Weather Forecast

Advertisements
Track Severe Weather on mobile